sensor_id;sensor_type;location;lat;lon;timestamp;P1;durP1;ratioP1;P2;durP2;ratioP2
71806;SDS011;59655;42.590;23.364;2022-08-18T00:02:18;19.75;;;8.32;;
71806;SDS011;59655;42.590;23.364;2022-08-18T00:04:45;15.75;;;8.38;;
71806;SDS011;59655;42.590;23.364;2022-08-18T00:07:13;12.95;;;7.68;;
71806;SDS011;59655;42.590;23.364;2022-08-18T00:09:41;10.40;;;6.97;;
71806;SDS011;59655;42.590;23.364;2022-08-18T00:12:11;15.63;;;8.40;;
71806;SDS011;59655;42.590;23.364;2022-08-18T00:14:45;13.52;;;8.02;;
71806;SDS011;59655;42.590;23.364;2022-08-18T00:17:11;12.85;;;7.57;;
71806;SDS011;59655;42.590;23.364;2022-08-18T00:19:37;11.85;;;7.78;;
71806;SDS011;59655;42.590;23.364;2022-08-18T00:22:03;14.25;;;8.55;;
71806;SDS011;59655;42.590;23.364;2022-08-18T00:24:28;11.68;;;7.60;;
71806;SDS011;59655;42.590;23.364;2022-08-18T00:26:55;14.93;;;8.00;;
71806;SDS011;59655;42.590;23.364;2022-08-18T00:29:20;13.82;;;8.05;;
71806;SDS011;59655;42.590;23.364;2022-08-18T00:31:46;13.60;;;8.02;;
71806;SDS011;59655;42.590;23.364;2022-08-18T00:34:11;14.10;;;7.57;;
71806;SDS011;59655;42.590;23.364;2022-08-18T00:36:36;12.88;;;8.05;;
71806;SDS011;59655;42.590;23.364;2022-08-18T00:39:02;11.98;;;7.65;;
71806;SDS011;59655;42.590;23.364;2022-08-18T00:41:28;13.18;;;8.13;;
71806;SDS011;59655;42.590;23.364;2022-08-18T00:43:54;13.75;;;8.18;;
71806;SDS011;59655;42.590;23.364;2022-08-18T00:46:29;12.32;;;8.80;;
71806;SDS011;59655;42.590;23.364;2022-08-18T00:48:57;15.15;;;8.13;;
71806;SDS011;59655;42.590;23.364;2022-08-18T00:51:28;13.48;;;8.85;;
71806;SDS011;59655;42.590;23.364;2022-08-18T00:53:57;14.23;;;9.10;;
71806;SDS011;59655;42.590;23.364;2022-08-18T00:56:30;18.05;;;9.40;;
71806;SDS011;59655;42.590;23.364;2022-08-18T00:59:08;16.10;;;8.60;;
71806;SDS011;59655;42.590;23.364;2022-08-18T01:01:40;12.77;;;8.45;;
71806;SDS011;59655;42.590;23.364;2022-08-18T01:04:08;13.27;;;8.82;;
71806;SDS011;59655;42.590;23.364;2022-08-18T01:06:43;18.55;;;9.40;;
71806;SDS011;59655;42.590;23.364;2022-08-18T01:09:15;15.63;;;9.27;;
71806;SDS011;59655;42.590;23.364;2022-08-18T01:11:41;15.75;;;9.48;;
71806;SDS011;59655;42.590;23.364;2022-08-18T01:14:08;13.30;;;8.63;;
71806;SDS011;59655;42.590;23.364;2022-08-18T01:16:35;15.23;;;9.18;;
71806;SDS011;59655;42.590;23.364;2022-08-18T01:19:19;13.88;;;9.35;;
71806;SDS011;59655;42.590;23.364;2022-08-18T01:25:23;16.80;;;9.98;;
71806;SDS011;59655;42.590;23.364;2022-08-18T01:28:07;13.75;;;9.27;;
71806;SDS011;59655;42.590;23.364;2022-08-18T01:30:43;16.42;;;9.07;;
71806;SDS011;59655;42.590;23.364;2022-08-18T01:33:12;14.82;;;9.63;;
71806;SDS011;59655;42.590;23.364;2022-08-18T01:35:39;14.45;;;9.05;;
71806;SDS011;59655;42.590;23.364;2022-08-18T01:38:07;14.77;;;9.55;;
71806;SDS011;59655;42.590;23.364;2022-08-18T01:40:32;15.48;;;9.57;;
71806;SDS011;59655;42.590;23.364;2022-08-18T01:42:58;15.63;;;9.85;;
71806;SDS011;59655;42.590;23.364;2022-08-18T01:45:29;14.60;;;9.85;;
71806;SDS011;59655;42.590;23.364;2022-08-18T01:47:57;13.82;;;10.00;;
71806;SDS011;59655;42.590;23.364;2022-08-18T01:50:23;20.52;;;10.77;;
71806;SDS011;59655;42.590;23.364;2022-08-18T01:52:49;16.42;;;10.40;;
71806;SDS011;59655;42.590;23.364;2022-08-18T01:55:17;14.88;;;9.65;;
71806;SDS011;59655;42.590;23.364;2022-08-18T01:57:43;17.73;;;10.18;;
71806;SDS011;59655;42.590;23.364;2022-08-18T02:00:12;14.02;;;9.80;;
71806;SDS011;59655;42.590;23.364;2022-08-18T02:02:40;15.30;;;9.98;;
71806;SDS011;59655;42.590;23.364;2022-08-18T02:05:08;15.18;;;9.90;;
71806;SDS011;59655;42.590;23.364;2022-08-18T02:07:37;15.95;;;9.32;;
71806;SDS011;59655;42.590;23.364;2022-08-18T02:10:04;15.80;;;9.90;;
71806;SDS011;59655;42.590;23.364;2022-08-18T02:12:31;13.80;;;9.63;;
71806;SDS011;59655;42.590;23.364;2022-08-18T02:14:57;14.23;;;9.32;;
71806;SDS011;59655;42.590;23.364;2022-08-18T02:17:22;16.88;;;10.13;;
71806;SDS011;59655;42.590;23.364;2022-08-18T02:19:48;16.75;;;9.82;;
71806;SDS011;59655;42.590;23.364;2022-08-18T02:22:15;15.63;;;9.13;;
71806;SDS011;59655;42.590;23.364;2022-08-18T02:24:43;14.20;;;9.90;;
71806;SDS011;59655;42.590;23.364;2022-08-18T02:27:09;18.67;;;9.90;;
71806;SDS011;59655;42.590;23.364;2022-08-18T02:29:35;14.85;;;9.60;;
71806;SDS011;59655;42.590;23.364;2022-08-18T02:32:01;16.33;;;10.15;;
71806;SDS011;59655;42.590;23.364;2022-08-18T02:34:27;13.85;;;9.18;;
71806;SDS011;59655;42.590;23.364;2022-08-18T02:36:52;16.55;;;9.82;;
71806;SDS011;59655;42.590;23.364;2022-08-18T02:39:18;15.35;;;9.90;;
71806;SDS011;59655;42.590;23.364;2022-08-18T02:41:43;15.98;;;10.38;;
71806;SDS011;59655;42.590;23.364;2022-08-18T02:44:09;17.90;;;10.63;;
71806;SDS011;59655;42.590;23.364;2022-08-18T02:46:35;16.88;;;10.20;;
71806;SDS011;59655;42.590;23.364;2022-08-18T02:49:02;19.67;;;11.52;;
71806;SDS011;59655;42.590;23.364;2022-08-18T02:56:23;23.80;;;11.05;;
71806;SDS011;59655;42.590;23.364;2022-08-18T02:58:53;15.75;;;10.80;;
71806;SDS011;59655;42.590;23.364;2022-08-18T03:01:22;16.98;;;10.40;;
71806;SDS011;59655;42.590;23.364;2022-08-18T03:03:50;17.33;;;10.05;;
71806;SDS011;59655;42.590;23.364;2022-08-18T03:06:16;18.15;;;10.38;;
71806;SDS011;59655;42.590;23.364;2022-08-18T03:08:42;19.85;;;11.02;;
71806;SDS011;59655;42.590;23.364;2022-08-18T03:11:13;20.00;;;10.90;;
71806;SDS011;59655;42.590;23.364;2022-08-18T03:13:40;18.52;;;11.63;;
71806;SDS011;59655;42.590;23.364;2022-08-18T03:16:06;17.92;;;10.75;;
71806;SDS011;59655;42.590;23.364;2022-08-18T03:18:31;19.27;;;11.77;;
71806;SDS011;59655;42.590;23.364;2022-08-18T03:21:02;15.50;;;9.93;;
71806;SDS011;59655;42.590;23.364;2022-08-18T03:25:56;16.70;;;10.27;;
71806;SDS011;59655;42.590;23.364;2022-08-18T03:28:22;16.38;;;10.73;;
71806;SDS011;59655;42.590;23.364;2022-08-18T03:30:47;20.30;;;9.82;;
71806;SDS011;59655;42.590;23.364;2022-08-18T03:33:13;21.38;;;10.13;;
71806;SDS011;59655;42.590;23.364;2022-08-18T03:35:38;19.63;;;10.38;;
71806;SDS011;59655;42.590;23.364;2022-08-18T03:38:05;19.55;;;10.18;;
71806;SDS011;59655;42.590;23.364;2022-08-18T03:40:31;15.82;;;9.52;;
71806;SDS011;59655;42.590;23.364;2022-08-18T03:42:56;19.30;;;9.95;;
71806;SDS011;59655;42.590;23.364;2022-08-18T03:45:22;17.05;;;9.63;;
71806;SDS011;59655;42.590;23.364;2022-08-18T03:47:48;17.50;;;10.32;;
71806;SDS011;59655;42.590;23.364;2022-08-18T03:50:17;16.63;;;9.55;;
71806;SDS011;59655;42.590;23.364;2022-08-18T03:52:44;14.40;;;9.40;;
71806;SDS011;59655;42.590;23.364;2022-08-18T03:55:13;19.98;;;11.02;;
71806;SDS011;59655;42.590;23.364;2022-08-18T03:57:40;16.75;;;9.60;;
71806;SDS011;59655;42.590;23.364;2022-08-18T04:00:07;20.88;;;11.75;;
71806;SDS011;59655;42.590;23.364;2022-08-18T04:02:33;22.95;;;11.30;;
71806;SDS011;59655;42.590;23.364;2022-08-18T04:04:59;27.90;;;11.57;;
71806;SDS011;59655;42.590;23.364;2022-08-18T04:07:24;29.38;;;14.18;;
71806;SDS011;59655;42.590;23.364;2022-08-18T04:09:49;24.67;;;11.25;;
71806;SDS011;59655;42.590;23.364;2022-08-18T04:12:15;23.58;;;11.02;;
71806;SDS011;59655;42.590;23.364;2022-08-18T04:14:42;18.60;;;10.20;;
71806;SDS011;59655;42.590;23.364;2022-08-18T04:17:11;19.63;;;10.18;;
71806;SDS011;59655;42.590;23.364;2022-08-18T04:19:37;16.92;;;10.00;;
71806;SDS011;59655;42.590;23.364;2022-08-18T04:22:03;20.35;;;10.23;;
71806;SDS011;59655;42.590;23.364;2022-08-18T04:24:29;15.30;;;9.52;;
71806;SDS011;59655;42.590;23.364;2022-08-18T04:26:56;15.77;;;9.27;;
71806;SDS011;59655;42.590;23.364;2022-08-18T04:29:23;22.70;;;10.02;;
71806;SDS011;59655;42.590;23.364;2022-08-18T04:31:48;23.88;;;10.95;;
71806;SDS011;59655;42.590;23.364;2022-08-18T04:34:15;21.92;;;11.00;;
71806;SDS011;59655;42.590;23.364;2022-08-18T04:36:42;18.92;;;10.82;;
71806;SDS011;59655;42.590;23.364;2022-08-18T04:39:09;21.95;;;11.13;;
71806;SDS011;59655;42.590;23.364;2022-08-18T04:41:36;24.17;;;14.13;;
71806;SDS011;59655;42.590;23.364;2022-08-18T04:44:03;19.65;;;11.07;;
71806;SDS011;59655;42.590;23.364;2022-08-18T04:46:37;20.85;;;10.75;;
71806;SDS011;59655;42.590;23.364;2022-08-18T04:49:04;17.40;;;10.10;;
71806;SDS011;59655;42.590;23.364;2022-08-18T04:51:30;25.30;;;11.38;;
71806;SDS011;59655;42.590;23.364;2022-08-18T04:53:56;20.75;;;10.40;;
71806;SDS011;59655;42.590;23.364;2022-08-18T04:56:26;21.27;;;10.63;;
71806;SDS011;59655;42.590;23.364;2022-08-18T04:58:58;28.98;;;11.20;;
71806;SDS011;59655;42.590;23.364;2022-08-18T05:01:26;20.83;;;10.13;;
71806;SDS011;59655;42.590;23.364;2022-08-18T05:03:54;19.00;;;10.40;;
71806;SDS011;59655;42.590;23.364;2022-08-18T05:06:22;21.13;;;10.80;;
71806;SDS011;59655;42.590;23.364;2022-08-18T05:08:49;20.38;;;11.20;;
71806;SDS011;59655;42.590;23.364;2022-08-18T05:11:17;21.65;;;11.13;;
71806;SDS011;59655;42.590;23.364;2022-08-18T05:13:42;20.90;;;11.77;;
71806;SDS011;59655;42.590;23.364;2022-08-18T05:16:08;23.50;;;14.10;;
71806;SDS011;59655;42.590;23.364;2022-08-18T05:18:33;27.25;;;13.18;;
71806;SDS011;59655;42.590;23.364;2022-08-18T05:21:04;18.70;;;12.00;;
71806;SDS011;59655;42.590;23.364;2022-08-18T05:23:31;21.45;;;11.80;;
71806;SDS011;59655;42.590;23.364;2022-08-18T05:25:59;17.90;;;11.18;;
71806;SDS011;59655;42.590;23.364;2022-08-18T05:28:30;24.40;;;12.38;;
71806;SDS011;59655;42.590;23.364;2022-08-18T05:30:56;20.20;;;12.05;;
71806;SDS011;59655;42.590;23.364;2022-08-18T05:33:22;20.67;;;12.32;;
71806;SDS011;59655;42.590;23.364;2022-08-18T05:35:50;26.75;;;12.40;;
71806;SDS011;59655;42.590;23.364;2022-08-18T05:43:39;21.58;;;12.02;;
71806;SDS011;59655;42.590;23.364;2022-08-18T05:48:33;26.60;;;11.70;;
71806;SDS011;59655;42.590;23.364;2022-08-18T05:51:09;21.23;;;11.77;;
71806;SDS011;59655;42.590;23.364;2022-08-18T05:53:38;20.77;;;11.70;;
71806;SDS011;59655;42.590;23.364;2022-08-18T05:56:25;23.67;;;11.43;;
71806;SDS011;59655;42.590;23.364;2022-08-18T05:59:16;20.33;;;12.20;;
71806;SDS011;59655;42.590;23.364;2022-08-18T06:01:55;26.77;;;12.68;;
71806;SDS011;59655;42.590;23.364;2022-08-18T06:04:36;21.75;;;12.10;;
71806;SDS011;59655;42.590;23.364;2022-08-18T06:07:04;19.67;;;12.07;;
71806;SDS011;59655;42.590;23.364;2022-08-18T06:09:39;22.10;;;11.82;;
71806;SDS011;59655;42.590;23.364;2022-08-18T06:15:44;22.52;;;11.95;;
71806;SDS011;59655;42.590;23.364;2022-08-18T06:23:45;19.63;;;11.85;;
71806;SDS011;59655;42.590;23.364;2022-08-18T06:37:06;28.08;;;12.63;;
71806;SDS011;59655;42.590;23.364;2022-08-18T06:39:39;28.15;;;13.25;;
71806;SDS011;59655;42.590;23.364;2022-08-18T06:42:10;21.58;;;12.70;;
71806;SDS011;59655;42.590;23.364;2022-08-18T06:44:45;20.65;;;12.35;;
71806;SDS011;59655;42.590;23.364;2022-08-18T06:50:13;21.50;;;12.57;;
71806;SDS011;59655;42.590;23.364;2022-08-18T06:52:57;22.90;;;12.68;;
71806;SDS011;59655;42.590;23.364;2022-08-18T06:55:36;28.85;;;13.15;;
71806;SDS011;59655;42.590;23.364;2022-08-18T07:00:42;23.52;;;12.82;;
71806;SDS011;59655;42.590;23.364;2022-08-18T07:03:19;20.55;;;13.10;;
71806;SDS011;59655;42.590;23.364;2022-08-18T07:06:00;21.65;;;12.35;;
71806;SDS011;59655;42.590;23.364;2022-08-18T07:08:37;21.08;;;12.93;;
71806;SDS011;59655;42.590;23.364;2022-08-18T07:14:14;21.20;;;12.65;;
71806;SDS011;59655;42.590;23.364;2022-08-18T07:16:45;21.67;;;12.70;;
71806;SDS011;59655;42.590;23.364;2022-08-18T07:19:11;23.13;;;12.82;;
71806;SDS011;59655;42.590;23.364;2022-08-18T07:21:37;24.83;;;13.05;;
71806;SDS011;59655;42.590;23.364;2022-08-18T07:24:06;24.25;;;14.02;;
71806;SDS011;59655;42.590;23.364;2022-08-18T07:29:28;25.88;;;13.75;;
71806;SDS011;59655;42.590;23.364;2022-08-18T07:34:27;29.35;;;13.57;;
71806;SDS011;59655;42.590;23.364;2022-08-18T07:37:06;20.02;;;12.43;;
71806;SDS011;59655;42.590;23.364;2022-08-18T07:39:37;22.73;;;12.52;;
71806;SDS011;59655;42.590;23.364;2022-08-18T07:42:16;23.98;;;13.15;;
71806;SDS011;59655;42.590;23.364;2022-08-18T07:44:53;24.13;;;13.75;;
71806;SDS011;59655;42.590;23.364;2022-08-18T07:47:26;29.02;;;14.35;;
71806;SDS011;59655;42.590;23.364;2022-08-18T07:50:12;23.52;;;12.70;;
71806;SDS011;59655;42.590;23.364;2022-08-18T07:52:39;32.30;;;15.23;;
71806;SDS011;59655;42.590;23.364;2022-08-18T07:55:30;24.58;;;13.43;;
71806;SDS011;59655;42.590;23.364;2022-08-18T08:08:43;21.83;;;12.02;;
71806;SDS011;59655;42.590;23.364;2022-08-18T08:17:03;18.00;;;10.23;;
71806;SDS011;59655;42.590;23.364;2022-08-18T08:25:33;21.55;;;9.15;;
71806;SDS011;59655;42.590;23.364;2022-08-18T08:28:18;15.65;;;9.00;;
71806;SDS011;59655;42.590;23.364;2022-08-18T08:31:10;17.98;;;9.60;;
71806;SDS011;59655;42.590;23.364;2022-08-18T08:33:44;17.23;;;9.80;;
71806;SDS011;59655;42.590;23.364;2022-08-18T08:36:17;17.00;;;10.00;;
71806;SDS011;59655;42.590;23.364;2022-08-18T08:41:38;17.02;;;10.27;;
71806;SDS011;59655;42.590;23.364;2022-08-18T08:44:09;26.88;;;10.52;;
71806;SDS011;59655;42.590;23.364;2022-08-18T08:46:41;18.55;;;10.20;;
71806;SDS011;59655;42.590;23.364;2022-08-18T08:49:24;19.05;;;10.23;;
71806;SDS011;59655;42.590;23.364;2022-08-18T08:51:58;16.50;;;10.07;;
71806;SDS011;59655;42.590;23.364;2022-08-18T08:57:10;16.00;;;9.95;;
71806;SDS011;59655;42.590;23.364;2022-08-18T09:05:02;15.30;;;9.50;;
71806;SDS011;59655;42.590;23.364;2022-08-18T09:21:57;23.42;;;10.02;;
71806;SDS011;59655;42.590;23.364;2022-08-18T09:24:30;16.63;;;9.32;;
71806;SDS011;59655;42.590;23.364;2022-08-18T09:27:11;13.77;;;9.07;;
71806;SDS011;59655;42.590;23.364;2022-08-18T09:29:53;15.75;;;8.60;;
71806;SDS011;59655;42.590;23.364;2022-08-18T09:43:09;12.38;;;8.15;;
71806;SDS011;59655;42.590;23.364;2022-08-18T09:45:40;13.88;;;8.75;;
71806;SDS011;59655;42.590;23.364;2022-08-18T09:48:22;15.15;;;8.32;;
71806;SDS011;59655;42.590;23.364;2022-08-18T10:02:00;15.50;;;8.93;;
71806;SDS011;59655;42.590;23.364;2022-08-18T10:12:38;16.17;;;8.27;;
71806;SDS011;59655;42.590;23.364;2022-08-18T10:28:59;14.57;;;8.15;;
71806;SDS011;59655;42.590;23.364;2022-08-18T10:37:17;14.85;;;8.85;;
71806;SDS011;59655;42.590;23.364;2022-08-18T10:39:44;19.25;;;8.50;;
71806;SDS011;59655;42.590;23.364;2022-08-18T10:42:27;16.00;;;8.60;;
71806;SDS011;59655;42.590;23.364;2022-08-18T10:45:09;12.07;;;8.23;;
71806;SDS011;59655;42.590;23.364;2022-08-18T10:47:39;14.73;;;8.82;;
71806;SDS011;59655;42.590;23.364;2022-08-18T10:50:17;14.63;;;8.70;;
71806;SDS011;59655;42.590;23.364;2022-08-18T10:56:09;18.40;;;8.65;;
71806;SDS011;59655;42.590;23.364;2022-08-18T11:04:44;10.20;;;8.50;;
71806;SDS011;59655;42.590;23.364;2022-08-18T11:07:18;14.85;;;9.05;;
71806;SDS011;59655;42.590;23.364;2022-08-18T11:09:52;14.68;;;8.98;;
71806;SDS011;59655;42.590;23.364;2022-08-18T11:26:31;14.55;;;8.55;;
71806;SDS011;59655;42.590;23.364;2022-08-18T11:28:59;15.02;;;8.32;;
71806;SDS011;59655;42.590;23.364;2022-08-18T11:31:43;15.38;;;8.60;;
71806;SDS011;59655;42.590;23.364;2022-08-18T11:34:13;16.85;;;9.07;;
71806;SDS011;59655;42.590;23.364;2022-08-18T11:36:43;13.40;;;8.38;;
71806;SDS011;59655;42.590;23.364;2022-08-18T11:39:09;12.43;;;8.27;;
71806;SDS011;59655;42.590;23.364;2022-08-18T11:41:35;15.63;;;8.40;;
71806;SDS011;59655;42.590;23.364;2022-08-18T11:44:02;15.02;;;7.80;;
71806;SDS011;59655;42.590;23.364;2022-08-18T11:46:37;11.50;;;7.90;;
71806;SDS011;59655;42.590;23.364;2022-08-18T11:49:16;15.32;;;8.80;;
71806;SDS011;59655;42.590;23.364;2022-08-18T11:52:00;14.38;;;8.52;;
71806;SDS011;59655;42.590;23.364;2022-08-18T11:54:48;14.77;;;8.18;;
71806;SDS011;59655;42.590;23.364;2022-08-18T12:03:22;11.43;;;8.43;;
71806;SDS011;59655;42.590;23.364;2022-08-18T12:05:53;11.07;;;7.90;;
71806;SDS011;59655;42.590;23.364;2022-08-18T12:08:52;13.98;;;8.40;;
71806;SDS011;59655;42.590;23.364;2022-08-18T12:11:48;13.45;;;7.50;;
71806;SDS011;59655;42.590;23.364;2022-08-18T12:14:21;13.65;;;7.85;;
71806;SDS011;59655;42.590;23.364;2022-08-18T12:16:49;12.85;;;7.72;;
71806;SDS011;59655;42.590;23.364;2022-08-18T12:19:15;12.05;;;7.97;;
71806;SDS011;59655;42.590;23.364;2022-08-18T12:21:42;14.13;;;8.07;;
71806;SDS011;59655;42.590;23.364;2022-08-18T12:24:20;13.10;;;7.88;;
71806;SDS011;59655;42.590;23.364;2022-08-18T12:26:50;12.45;;;8.27;;
71806;SDS011;59655;42.590;23.364;2022-08-18T12:29:16;15.43;;;8.88;;
71806;SDS011;59655;42.590;23.364;2022-08-18T12:31:43;12.05;;;8.40;;
71806;SDS011;59655;42.590;23.364;2022-08-18T12:34:09;15.57;;;8.45;;
71806;SDS011;59655;42.590;23.364;2022-08-18T12:36:35;13.55;;;8.45;;
71806;SDS011;59655;42.590;23.364;2022-08-18T12:39:00;12.65;;;8.88;;
71806;SDS011;59655;42.590;23.364;2022-08-18T12:41:26;12.57;;;8.13;;
71806;SDS011;59655;42.590;23.364;2022-08-18T12:43:51;13.63;;;8.43;;
71806;SDS011;59655;42.590;23.364;2022-08-18T12:46:20;11.40;;;8.52;;
71806;SDS011;59655;42.590;23.364;2022-08-18T12:48:46;13.05;;;8.45;;
71806;SDS011;59655;42.590;23.364;2022-08-18T12:51:12;11.75;;;8.40;;
71806;SDS011;59655;42.590;23.364;2022-08-18T12:53:38;13.63;;;8.30;;
71806;SDS011;59655;42.590;23.364;2022-08-18T12:56:13;13.95;;;8.63;;
71806;SDS011;59655;42.590;23.364;2022-08-18T12:58:39;14.90;;;8.32;;
71806;SDS011;59655;42.590;23.364;2022-08-18T13:01:05;15.05;;;9.05;;
71806;SDS011;59655;42.590;23.364;2022-08-18T13:03:30;11.95;;;8.48;;
71806;SDS011;59655;42.590;23.364;2022-08-18T13:05:56;12.45;;;7.88;;
71806;SDS011;59655;42.590;23.364;2022-08-18T13:08:21;10.98;;;8.43;;
71806;SDS011;59655;42.590;23.364;2022-08-18T13:10:47;11.18;;;8.25;;
71806;SDS011;59655;42.590;23.364;2022-08-18T13:13:14;12.43;;;7.68;;
71806;SDS011;59655;42.590;23.364;2022-08-18T13:15:41;12.77;;;8.05;;
71806;SDS011;59655;42.590;23.364;2022-08-18T13:18:08;11.85;;;8.18;;
71806;SDS011;59655;42.590;23.364;2022-08-18T13:20:33;14.82;;;8.65;;
71806;SDS011;59655;42.590;23.364;2022-08-18T13:23:00;12.15;;;8.30;;
71806;SDS011;59655;42.590;23.364;2022-08-18T13:25:26;16.17;;;8.73;;
71806;SDS011;59655;42.590;23.364;2022-08-18T13:27:51;10.93;;;8.35;;
71806;SDS011;59655;42.590;23.364;2022-08-18T13:30:17;13.77;;;8.25;;
71806;SDS011;59655;42.590;23.364;2022-08-18T13:32:42;11.93;;;8.70;;
71806;SDS011;59655;42.590;23.364;2022-08-18T13:35:08;11.50;;;8.07;;
71806;SDS011;59655;42.590;23.364;2022-08-18T13:37:34;12.80;;;8.48;;
71806;SDS011;59655;42.590;23.364;2022-08-18T13:40:00;10.85;;;7.82;;
71806;SDS011;59655;42.590;23.364;2022-08-18T13:42:25;14.48;;;8.55;;
71806;SDS011;59655;42.590;23.364;2022-08-18T13:44:53;12.48;;;8.10;;
71806;SDS011;59655;42.590;23.364;2022-08-18T13:47:20;13.60;;;8.70;;
71806;SDS011;59655;42.590;23.364;2022-08-18T13:49:46;13.07;;;8.80;;
71806;SDS011;59655;42.590;23.364;2022-08-18T13:52:12;17.45;;;8.13;;
71806;SDS011;59655;42.590;23.364;2022-08-18T13:54:39;12.30;;;7.18;;
71806;SDS011;59655;42.590;23.364;2022-08-18T13:57:04;10.40;;;7.45;;
71806;SDS011;59655;42.590;23.364;2022-08-18T13:59:30;10.15;;;7.40;;
71806;SDS011;59655;42.590;23.364;2022-08-18T14:01:58;12.38;;;9.10;;
71806;SDS011;59655;42.590;23.364;2022-08-18T14:04:25;10.05;;;8.15;;
71806;SDS011;59655;42.590;23.364;2022-08-18T14:06:51;10.82;;;7.57;;
71806;SDS011;59655;42.590;23.364;2022-08-18T14:09:18;11.93;;;7.05;;
71806;SDS011;59655;42.590;23.364;2022-08-18T14:11:44;12.50;;;8.23;;
71806;SDS011;59655;42.590;23.364;2022-08-18T14:14:11;10.55;;;7.43;;
71806;SDS011;59655;42.590;23.364;2022-08-18T14:16:37;12.38;;;7.00;;
71806;SDS011;59655;42.590;23.364;2022-08-18T14:19:03;12.48;;;7.93;;
71806;SDS011;59655;42.590;23.364;2022-08-18T14:21:49;10.32;;;7.65;;
71806;SDS011;59655;42.590;23.364;2022-08-18T14:24:35;9.90;;;7.32;;
71806;SDS011;59655;42.590;23.364;2022-08-18T14:27:23;15.40;;;7.78;;
71806;SDS011;59655;42.590;23.364;2022-08-18T14:29:54;9.57;;;7.22;;
71806;SDS011;59655;42.590;23.364;2022-08-18T14:32:23;10.15;;;7.15;;
71806;SDS011;59655;42.590;23.364;2022-08-18T14:34:54;8.50;;;7.00;;
71806;SDS011;59655;42.590;23.364;2022-08-18T14:37:22;8.57;;;7.38;;
71806;SDS011;59655;42.590;23.364;2022-08-18T14:39:48;11.10;;;7.20;;
71806;SDS011;59655;42.590;23.364;2022-08-18T14:42:15;9.38;;;7.30;;
71806;SDS011;59655;42.590;23.364;2022-08-18T14:44:43;10.43;;;7.03;;
71806;SDS011;59655;42.590;23.364;2022-08-18T14:47:09;9.77;;;6.40;;
71806;SDS011;59655;42.590;23.364;2022-08-18T14:49:35;10.10;;;6.57;;
71806;SDS011;59655;42.590;23.364;2022-08-18T14:52:01;8.70;;;6.60;;
71806;SDS011;59655;42.590;23.364;2022-08-18T14:54:27;8.70;;;6.97;;
71806;SDS011;59655;42.590;23.364;2022-08-18T14:56:53;8.63;;;6.72;;
71806;SDS011;59655;42.590;23.364;2022-08-18T14:59:18;15.18;;;7.32;;
71806;SDS011;59655;42.590;23.364;2022-08-18T15:01:44;9.40;;;6.05;;
71806;SDS011;59655;42.590;23.364;2022-08-18T15:04:09;9.63;;;6.15;;
71806;SDS011;59655;42.590;23.364;2022-08-18T15:06:39;8.63;;;6.60;;
71806;SDS011;59655;42.590;23.364;2022-08-18T15:09:04;12.57;;;6.85;;
71806;SDS011;59655;42.590;23.364;2022-08-18T15:11:30;11.38;;;7.20;;
71806;SDS011;59655;42.590;23.364;2022-08-18T15:13:57;9.05;;;6.95;;
71806;SDS011;59655;42.590;23.364;2022-08-18T15:16:24;10.43;;;6.65;;
71806;SDS011;59655;42.590;23.364;2022-08-18T15:18:50;7.88;;;6.72;;
71806;SDS011;59655;42.590;23.364;2022-08-18T15:21:15;8.57;;;6.22;;
71806;SDS011;59655;42.590;23.364;2022-08-18T15:23:59;13.32;;;6.88;;
71806;SDS011;59655;42.590;23.364;2022-08-18T15:26:43;10.60;;;6.28;;
71806;SDS011;59655;42.590;23.364;2022-08-18T15:29:10;11.30;;;7.00;;
71806;SDS011;59655;42.590;23.364;2022-08-18T15:31:36;11.10;;;6.97;;
71806;SDS011;59655;42.590;23.364;2022-08-18T15:34:02;15.32;;;7.43;;
71806;SDS011;59655;42.590;23.364;2022-08-18T15:36:29;16.10;;;8.13;;
71806;SDS011;59655;42.590;23.364;2022-08-18T15:38:58;14.40;;;7.72;;
71806;SDS011;59655;42.590;23.364;2022-08-18T15:44:01;11.30;;;7.00;;
71806;SDS011;59655;42.590;23.364;2022-08-18T15:46:27;13.95;;;7.95;;
71806;SDS011;59655;42.590;23.364;2022-08-18T15:48:55;17.42;;;7.70;;
71806;SDS011;59655;42.590;23.364;2022-08-18T15:51:20;10.38;;;7.05;;
71806;SDS011;59655;42.590;23.364;2022-08-18T15:53:46;10.95;;;7.43;;
71806;SDS011;59655;42.590;23.364;2022-08-18T15:56:15;9.55;;;7.40;;
71806;SDS011;59655;42.590;23.364;2022-08-18T15:58:43;10.38;;;7.47;;
71806;SDS011;59655;42.590;23.364;2022-08-18T16:01:10;16.45;;;7.97;;
71806;SDS011;59655;42.590;23.364;2022-08-18T16:03:37;11.70;;;7.72;;
71806;SDS011;59655;42.590;23.364;2022-08-18T16:06:03;14.20;;;7.75;;
71806;SDS011;59655;42.590;23.364;2022-08-18T16:08:29;12.50;;;7.82;;
71806;SDS011;59655;42.590;23.364;2022-08-18T16:10:54;14.23;;;7.75;;
71806;SDS011;59655;42.590;23.364;2022-08-18T16:13:20;19.80;;;8.45;;
71806;SDS011;59655;42.590;23.364;2022-08-18T16:15:47;13.45;;;7.68;;
71806;SDS011;59655;42.590;23.364;2022-08-18T16:18:14;9.60;;;7.22;;
71806;SDS011;59655;42.590;23.364;2022-08-18T16:20:41;10.50;;;7.90;;
71806;SDS011;59655;42.590;23.364;2022-08-18T16:23:07;10.20;;;7.53;;
71806;SDS011;59655;42.590;23.364;2022-08-18T16:25:35;10.55;;;7.60;;
71806;SDS011;59655;42.590;23.364;2022-08-18T16:28:02;10.23;;;7.95;;
71806;SDS011;59655;42.590;23.364;2022-08-18T16:30:28;11.32;;;8.55;;
71806;SDS011;59655;42.590;23.364;2022-08-18T16:32:54;10.82;;;7.88;;
71806;SDS011;59655;42.590;23.364;2022-08-18T16:35:20;13.65;;;8.07;;
71806;SDS011;59655;42.590;23.364;2022-08-18T16:37:46;13.23;;;9.07;;
71806;SDS011;59655;42.590;23.364;2022-08-18T16:40:14;11.93;;;8.23;;
71806;SDS011;59655;42.590;23.364;2022-08-18T16:42:40;10.98;;;8.32;;
71806;SDS011;59655;42.590;23.364;2022-08-18T16:45:06;11.50;;;8.43;;
71806;SDS011;59655;42.590;23.364;2022-08-18T16:47:32;10.95;;;9.07;;
71806;SDS011;59655;42.590;23.364;2022-08-18T16:50:04;15.02;;;8.55;;
71806;SDS011;59655;42.590;23.364;2022-08-18T16:52:34;17.85;;;9.50;;
71806;SDS011;59655;42.590;23.364;2022-08-18T16:55:00;12.35;;;8.73;;
71806;SDS011;59655;42.590;23.364;2022-08-18T16:57:26;13.95;;;8.90;;
71806;SDS011;59655;42.590;23.364;2022-08-18T17:00:10;12.32;;;8.48;;
71806;SDS011;59655;42.590;23.364;2022-08-18T17:02:54;11.55;;;8.98;;
71806;SDS011;59655;42.590;23.364;2022-08-18T17:05:39;13.38;;;10.35;;
71806;SDS011;59655;42.590;23.364;2022-08-18T17:08:04;11.88;;;9.10;;
71806;SDS011;59655;42.590;23.364;2022-08-18T17:10:30;12.13;;;8.63;;
71806;SDS011;59655;42.590;23.364;2022-08-18T17:13:02;14.35;;;8.65;;
71806;SDS011;59655;42.590;23.364;2022-08-18T17:15:29;15.50;;;8.70;;
71806;SDS011;59655;42.590;23.364;2022-08-18T17:17:55;12.48;;;9.52;;
71806;SDS011;59655;42.590;23.364;2022-08-18T17:20:20;18.50;;;9.45;;
71806;SDS011;59655;42.590;23.364;2022-08-18T17:22:46;10.70;;;8.68;;
71806;SDS011;59655;42.590;23.364;2022-08-18T17:25:12;16.05;;;9.88;;
71806;SDS011;59655;42.590;23.364;2022-08-18T17:27:42;13.23;;;8.90;;
71806;SDS011;59655;42.590;23.364;2022-08-18T17:30:12;13.15;;;8.65;;
71806;SDS011;59655;42.590;23.364;2022-08-18T17:35:14;13.38;;;9.15;;
71806;SDS011;59655;42.590;23.364;2022-08-18T17:37:46;13.77;;;8.82;;